createdAt,value
2019-03-25T14:01:11.193Z,16.85
2019-03-25T14:03:42.503Z,13.58
2019-03-25T14:06:14.374Z,17.67
2019-03-25T14:08:45.536Z,11.57
2019-03-25T14:11:16.661Z,14.63
2019-03-25T14:13:49.525Z,13.15
2019-03-25T14:16:20.815Z,13.55
2019-03-25T14:18:52.964Z,15.05
2019-03-25T14:21:24.865Z,14.35
2019-03-25T14:23:56.385Z,11.38
2019-03-25T14:29:01.222Z,10.60
2019-03-25T14:31:32.654Z,10.35
2019-03-25T14:34:04.016Z,10.05
2019-03-25T14:36:35.520Z,11.33
2019-03-25T14:41:38.418Z,9.88
2019-03-25T14:44:09.537Z,11.75
2019-03-25T14:46:40.663Z,14.70
2019-03-25T14:49:11.577Z,14.30
2019-03-25T14:51:43.239Z,13.60
2019-03-25T14:54:15.379Z,10.03
2019-03-25T14:56:46.148Z,11.12
2019-03-25T14:59:17.291Z,10.23
2019-03-25T15:01:48.623Z,16.70
2019-03-25T15:04:20.043Z,12.40
2019-03-25T15:09:21.635Z,12.25
2019-03-25T15:11:52.430Z,11.18
2019-03-25T15:14:24.754Z,11.25
2019-03-25T15:17:10.097Z,11.28
2019-03-25T15:19:42.555Z,12.58
2019-03-25T15:22:14.941Z,12.07
2019-03-25T15:24:46.292Z,13.32
2019-03-25T15:27:17.891Z,20.20
2019-03-25T15:29:49.197Z,11.57
2019-03-25T15:32:23.399Z,11.53
2019-03-25T15:34:55.248Z,12.73
2019-03-25T15:37:25.888Z,13.88
2019-03-25T15:39:56.872Z,18.03
2019-03-25T15:42:28.118Z,11.15
2019-03-25T15:45:01.533Z,10.30
2019-03-25T15:47:33.595Z,12.23
2019-03-25T15:50:04.808Z,12.60
2019-03-25T15:55:08.425Z,10.35
2019-03-25T15:57:39.861Z,15.75
2019-03-25T16:00:20.432Z,10.88
2019-03-25T16:02:52.505Z,12.75
2019-03-25T16:05:23.904Z,13.58
2019-03-25T16:07:55.207Z,11.40
2019-03-25T16:13:02.958Z,12.33
2019-03-25T16:15:35.974Z,13.95
2019-03-25T16:18:09.294Z,11.88
2019-03-25T16:20:40.950Z,11.50
2019-03-25T16:23:12.125Z,12.53
2019-03-25T16:25:44.559Z,11.03
2019-03-25T16:28:18.488Z,12.68
2019-03-25T16:30:58.801Z,12.88
2019-03-25T16:33:26.310Z,13.95
2019-03-25T16:35:57.819Z,10.40
2019-03-25T16:38:29.049Z,15.25
2019-03-25T16:41:01.112Z,11.45
2019-03-25T16:43:32.884Z,13.22
2019-03-25T16:46:06.104Z,12.70
2019-03-25T16:48:37.864Z,13.95
2019-03-25T16:51:09.833Z,13.80
2019-03-25T16:53:41.085Z,14.93
2019-03-25T16:56:18.867Z,11.08
2019-03-25T16:58:50.524Z,11.20
2019-03-25T17:03:53.012Z,14.20
2019-03-25T17:08:54.867Z,14.30
2019-03-25T17:14:05.330Z,13.72
2019-03-25T17:16:36.968Z,11.73
2019-03-25T17:21:41.787Z,13.68
2019-03-25T17:24:14.402Z,10.75
2019-03-25T17:26:52.672Z,12.63
2019-03-25T17:29:23.984Z,14.07
2019-03-25T17:31:55.562Z,9.63
2019-03-25T17:34:32.552Z,11.95
2019-03-25T17:37:04.234Z,11.93
2019-03-25T17:39:35.557Z,12.60
2019-03-25T17:42:07.148Z,11.18
2019-03-25T17:44:45.734Z,11.43
2019-03-25T17:47:16.909Z,11.63
2019-03-25T17:49:54.724Z,14.10
2019-03-25T17:55:15.227Z,9.98
2019-03-25T18:00:33.779Z,11.85
2019-03-25T18:03:11.239Z,12.23
2019-03-25T18:05:39.851Z,15.03
2019-03-25T18:08:11.123Z,9.43
2019-03-25T18:10:44.335Z,12.95
2019-03-25T18:13:22.307Z,9.73
2019-03-25T18:15:53.962Z,12.98
2019-03-25T18:18:25.523Z,11.70
2019-03-25T18:20:57.257Z,12.20
2019-03-25T18:23:29.734Z,12.35
2019-03-25T18:26:01.378Z,13.65
2019-03-25T18:28:32.706Z,8.78
2019-03-25T18:31:05.331Z,13.25
2019-03-25T18:33:36.629Z,9.38
2019-03-25T18:38:39.057Z,16.42
2019-03-25T18:41:17.788Z,10.70
2019-03-25T18:43:49.500Z,15.23
2019-03-25T18:46:24.179Z,10.28
2019-03-25T18:49:02.461Z,10.43
2019-03-25T18:51:35.911Z,11.45
2019-03-25T18:54:07.048Z,10.48
2019-03-25T18:56:39.526Z,12.23
2019-03-25T18:59:11.136Z,17.65
2019-03-25T19:01:42.235Z,21.35
2019-03-25T19:04:13.808Z,10.93
2019-03-25T19:06:47.478Z,24.45
2019-03-25T19:09:31.104Z,11.55
2019-03-25T19:12:03.038Z,22.50
2019-03-25T19:14:34.231Z,15.90
2019-03-25T19:17:06.262Z,27.05
2019-03-25T19:19:44.494Z,26.42
2019-03-25T19:22:22.938Z,26.12
2019-03-25T19:24:55.846Z,27.80
2019-03-25T19:27:28.968Z,33.05
2019-03-25T19:30:00.698Z,38.58
2019-03-25T19:32:41.722Z,32.58
2019-03-25T19:35:13.689Z,36.50
2019-03-25T19:37:47.155Z,41.40
2019-03-25T19:40:18.507Z,23.07
2019-03-25T19:42:56.714Z,72.10
2019-03-25T19:45:29.105Z,50.25
2019-03-25T19:48:06.812Z,73.72
2019-03-25T19:50:38.766Z,58.98
2019-03-25T19:53:18.967Z,47.25
2019-03-25T19:55:49.762Z,49.30
2019-03-25T19:58:25.658Z,25.23
2019-03-25T20:00:58.458Z,49.85
2019-03-25T20:03:32.854Z,45.20
2019-03-25T20:06:08.745Z,45.03
2019-03-25T20:08:46.696Z,25.10
2019-03-25T20:11:17.615Z,42.62
2019-03-25T20:13:55.850Z,52.58
2019-03-25T20:16:33.766Z,42.88
2019-03-25T20:19:05.085Z,45.92
2019-03-25T20:21:36.215Z,46.00
2019-03-25T20:24:07.516Z,47.17
2019-03-25T20:26:38.752Z,41.00
2019-03-25T20:29:09.968Z,41.00
2019-03-25T20:31:40.631Z,42.08
2019-03-25T20:34:12.274Z,40.03
2019-03-25T20:39:19.291Z,37.17
2019-03-25T20:44:23.177Z,43.10
2019-03-25T20:46:55.449Z,40.65
2019-03-25T20:49:27.479Z,40.33
2019-03-25T20:51:59.184Z,35.60
2019-03-25T20:57:01.073Z,35.43
2019-03-25T20:59:40.707Z,44.98
2019-03-25T21:02:11.950Z,44.95
2019-03-25T21:04:43.234Z,28.05
2019-03-25T21:09:45.219Z,44.83
2019-03-25T21:12:16.709Z,45.70
2019-03-25T21:17:17.409Z,39.55
2019-03-25T21:19:51.160Z,47.70
2019-03-25T21:22:22.251Z,48.25
2019-03-25T21:24:53.836Z,54.27
2019-03-25T21:29:55.990Z,49.48
2019-03-25T21:32:33.641Z,28.73
2019-03-25T21:35:05.578Z,42.05
2019-03-25T21:37:38.901Z,59.73
2019-03-25T21:40:18.627Z,55.80
2019-03-25T21:42:55.072Z,49.35
2019-03-25T21:45:26.551Z,50.60
2019-03-25T21:50:35.696Z,50.88
2019-03-25T21:53:07.324Z,47.05
2019-03-25T21:55:38.573Z,44.03
2019-03-25T21:58:10.417Z,51.00
2019-03-25T22:00:41.750Z,48.70
2019-03-25T22:03:25.205Z,48.23
2019-03-25T22:06:03.783Z,37.90
2019-03-25T22:08:41.640Z,43.42
2019-03-25T22:11:19.747Z,48.60
2019-03-25T22:13:51.302Z,45.75
2019-03-25T22:16:29.743Z,51.10
2019-03-25T22:19:01.075Z,45.63
2019-03-25T22:21:33.332Z,47.60
2019-03-25T22:24:12.039Z,51.15
2019-03-25T22:26:49.898Z,44.90
2019-03-25T22:29:21.661Z,50.48
2019-03-25T22:31:53.277Z,51.90
2019-03-25T22:34:30.807Z,54.70
2019-03-25T22:37:08.921Z,49.10
2019-03-25T22:39:39.887Z,53.42
2019-03-25T22:42:11.131Z,52.07
2019-03-25T22:44:42.496Z,51.75
